Time;durP1;ratioP1;P1;durP2;ratioP2;P2;SDS_P1;SDS_P2;PMS_P1;PMS_P2;Temp;Humidity;BMP_temperature;BMP_pressure;BME280_temperature;BME280_humidity;BME280_pressure;Samples;Min_cycle;Max_cycle;Signal;HPM_P1;HPM_P2
2023/05/04 00:00:06;;;;;;;8.52;3.85;;;;;;;;;;5052519;28;20029;-69
2023/05/04 00:02:32;;;;;;;4.38;3.75;;;;;;;;;;5052846;28;20025;-70
2023/05/04 00:04:59;;;;;;;4.55;3.65;;;;;;;;;;5052523;28;20035;-70
2023/05/04 00:07:25;;;;;;;12.48;3.60;;;;;;;;;;5052551;28;20025;-70
2023/05/04 00:09:51;;;;;;;7.95;3.65;;;;;;;;;;5052428;28;20028;-69
2023/05/04 00:12:18;;;;;;;4.60;3.20;;;;;;;;;;5052690;28;20021;-70
2023/05/04 00:14:44;;;;;;;4.38;3.00;;;;;;;;;;5052374;28;20029;-69
2023/05/04 00:17:11;;;;;;;7.30;3.30;;;;;;;;;;5052360;28;20025;-70
2023/05/04 00:19:40;;;;;;;6.88;3.25;;;;;;;;;;5052276;28;20035;-69
2023/05/04 00:22:07;;;;;;;3.42;3.13;;;;;;;;;;5052372;28;20017;-69
2023/05/04 00:24:33;;;;;;;3.88;2.95;;;;;;;;;;5052480;28;20032;-70
2023/05/04 00:27:01;;;;;;;5.13;3.42;;;;;;;;;;5052417;28;20074;-70
2023/05/04 00:29:27;;;;;;;5.38;3.45;;;;;;;;;;5052398;28;20094;-70
2023/05/04 00:31:53;;;;;;;3.83;3.25;;;;;;;;;;5052301;28;20037;-69
2023/05/04 00:34:20;;;;;;;5.93;3.00;;;;;;;;;;5052483;28;20047;-70
2023/05/04 00:36:46;;;;;;;4.20;2.95;;;;;;;;;;5052166;28;20021;-70
2023/05/04 00:39:13;;;;;;;4.53;3.22;;;;;;;;;;5052220;28;20401;-70
2023/05/04 00:41:39;;;;;;;3.72;2.97;;;;;;;;;;5052074;28;20474;-70
2023/05/04 00:44:05;;;;;;;5.90;2.97;;;;;;;;;;5052384;28;20017;-70
2023/05/04 00:46:32;;;;;;;4.47;2.97;;;;;;;;;;5051960;28;20054;-69
2023/05/04 00:48:58;;;;;;;3.45;2.97;;;;;;;;;;5050917;28;20025;-70
2023/05/04 00:51:25;;;;;;;6.18;3.35;;;;;;;;;;5052015;28;20031;-69
2023/05/04 00:53:51;;;;;;;4.80;3.30;;;;;;;;;;5051813;28;20029;-69
2023/05/04 00:56:19;;;;;;;5.72;3.60;;;;;;;;;;5052716;28;20029;-69
2023/05/04 00:58:45;;;;;;;5.38;3.25;;;;;;;;;;5055858;28;20029;-69
2023/05/04 01:01:11;;;;;;;5.97;3.35;;;;;;;;;;5055544;28;20029;-69
2023/05/04 01:03:38;;;;;;;5.90;3.30;;;;;;;;;;5055506;28;20413;-70
2023/05/04 01:06:04;;;;;;;3.22;2.92;;;;;;;;;;5055880;28;20028;-69
2023/05/04 01:08:31;;;;;;;6.25;3.30;;;;;;;;;;5055812;28;20071;-70
2023/05/04 01:11:07;;;;;;;4.63;3.40;;;;;;;;;;5055474;28;20031;-70
2023/05/04 01:13:34;;;;;;;3.85;3.15;;;;;;;;;;5055353;28;20024;-69
2023/05/04 01:16:01;;;;;;;7.18;3.08;;;;;;;;;;5055485;28;20035;-70
2023/05/04 01:18:28;;;;;;;4.15;3.42;;;;;;;;;;5055617;28;20027;-70
2023/05/04 01:20:54;;;;;;;9.82;3.25;;;;;;;;;;5055621;28;20032;-69
2023/05/04 01:23:21;;;;;;;4.82;3.10;;;;;;;;;;5055160;28;20025;-69
2023/05/04 01:25:50;;;;;;;5.93;3.17;;;;;;;;;;5055245;28;20029;-69
2023/05/04 01:28:22;;;;;;;5.25;3.67;;;;;;;;;;5054705;28;20028;-69
2023/05/04 01:30:51;;;;;;;4.00;3.40;;;;;;;;;;5055024;28;20044;-70
2023/05/04 01:33:17;;;;;;;7.05;3.42;;;;;;;;;;5055100;28;20039;-70
2023/05/04 01:35:44;;;;;;;3.17;2.88;;;;;;;;;;5055474;28;20029;-69
2023/05/04 01:38:11;;;;;;;6.68;3.22;;;;;;;;;;5055028;28;20037;-70
2023/05/04 01:40:37;;;;;;;5.32;3.45;;;;;;;;;;5054961;28;20404;-70
2023/05/04 01:43:03;;;;;;;5.28;3.55;;;;;;;;;;5054051;28;20023;-70
2023/05/04 01:45:30;;;;;;;4.95;3.15;;;;;;;;;;5055248;28;20055;-69
2023/05/04 01:47:56;;;;;;;5.30;3.10;;;;;;;;;;5055002;28;20470;-70
2023/05/04 01:50:22;;;;;;;5.30;3.60;;;;;;;;;;5054871;28;20032;-69
2023/05/04 01:52:49;;;;;;;4.65;3.33;;;;;;;;;;5054614;28;20039;-70
2023/05/04 01:55:16;;;;;;;6.28;3.00;;;;;;;;;;5054791;28;20031;-70
2023/05/04 01:57:42;;;;;;;4.80;3.53;;;;;;;;;;5054840;28;20478;-69
2023/05/04 02:00:08;;;;;;;4.60;3.22;;;;;;;;;;5053558;28;20028;-69
2023/05/04 02:02:35;;;;;;;4.18;3.33;;;;;;;;;;5054786;28;20031;-69
2023/05/04 02:05:01;;;;;;;3.47;3.17;;;;;;;;;;5054628;28;20017;-70
2023/05/04 02:07:27;;;;;;;5.45;3.22;;;;;;;;;;5054061;28;20021;-70
2023/05/04 02:09:54;;;;;;;6.50;3.10;;;;;;;;;;5054033;28;20389;-69
2023/05/04 02:12:20;;;;;;;7.25;3.17;;;;;;;;;;5054518;28;20470;-69
2023/05/04 02:14:46;;;;;;;6.22;3.55;;;;;;;;;;5054449;28;20444;-69
2023/05/04 02:17:13;;;;;;;3.70;3.30;;;;;;;;;;5054283;28;20017;-69
2023/05/04 02:19:39;;;;;;;5.72;3.45;;;;;;;;;;5054269;28;20082;-69
2023/05/04 02:22:05;;;;;;;4.65;3.00;;;;;;;;;;5053962;28;20021;-69
2023/05/04 02:24:33;;;;;;;7.25;3.13;;;;;;;;;;5054361;28;20035;-70
2023/05/04 02:27:00;;;;;;;3.50;3.20;;;;;;;;;;5054125;28;20044;-69
2023/05/04 02:29:26;;;;;;;5.78;3.30;;;;;;;;;;5053822;28;20031;-69
2023/05/04 02:31:53;;;;;;;6.68;3.22;;;;;;;;;;5054160;28;20027;-69
2023/05/04 02:34:19;;;;;;;4.72;3.13;;;;;;;;;;5053940;28;20044;-70
2023/05/04 02:36:46;;;;;;;5.57;3.35;;;;;;;;;;5053838;28;20028;-69
2023/05/04 02:39:12;;;;;;;3.45;3.05;;;;;;;;;;5053963;28;20025;-70
2023/05/04 02:41:38;;;;;;;4.00;3.13;;;;;;;;;;5053884;28;20051;-69
2023/05/04 02:44:04;;;;;;;6.30;3.22;;;;;;;;;;5053951;28;20021;-70
2023/05/04 02:46:31;;;;;;;4.95;3.72;;;;;;;;;;5053736;28;20024;-70
2023/05/04 02:48:57;;;;;;;5.22;3.63;;;;;;;;;;5053642;28;20029;-70
2023/05/04 02:51:24;;;;;;;4.55;3.45;;;;;;;;;;5053680;28;20047;-69
2023/05/04 02:53:50;;;;;;;5.43;2.97;;;;;;;;;;5053855;28;20021;-69
2023/05/04 02:56:16;;;;;;;4.32;2.72;;;;;;;;;;5053664;28;20024;-70
2023/05/04 02:58:43;;;;;;;4.47;3.30;;;;;;;;;;5053832;28;20023;-69
2023/05/04 03:01:09;;;;;;;4.85;2.90;;;;;;;;;;5053313;28;20025;-69
2023/05/04 03:03:35;;;;;;;4.72;2.92;;;;;;;;;;5053720;28;20313;-69
2023/05/04 03:06:02;;;;;;;4.72;2.88;;;;;;;;;;5053192;28;20017;-69
2023/05/04 03:08:29;;;;;;;3.35;2.92;;;;;;;;;;5053359;28;20025;-70
2023/05/04 03:10:55;;;;;;;4.28;3.45;;;;;;;;;;5053291;28;20070;-69
2023/05/04 03:13:21;;;;;;;3.47;3.00;;;;;;;;;;5053262;28;20482;-69
2023/05/04 03:15:47;;;;;;;5.43;3.25;;;;;;;;;;5053200;28;20025;-70
2023/05/04 03:18:14;;;;;;;3.28;2.90;;;;;;;;;;5053482;28;20033;-69
2023/05/04 03:20:40;;;;;;;3.22;2.90;;;;;;;;;;5084813;28;20043;-69
2023/05/04 03:23:06;;;;;;;3.47;2.50;;;;;;;;;;5053344;28;20025;-69
2023/05/04 03:25:33;;;;;;;6.53;3.20;;;;;;;;;;5053571;28;20040;-69
2023/05/04 03:27:59;;;;;;;4.10;2.90;;;;;;;;;;5053098;28;20029;-69
2023/05/04 03:30:26;;;;;;;5.70;3.13;;;;;;;;;;5052712;28;20055;-70
2023/05/04 03:32:52;;;;;;;3.80;3.03;;;;;;;;;;5053235;28;20025;-69
2023/05/04 03:35:18;;;;;;;5.03;2.92;;;;;;;;;;5052552;28;20402;-70
2023/05/04 03:37:45;;;;;;;5.75;3.03;;;;;;;;;;5053007;28;20405;-69
2023/05/04 03:40:11;;;;;;;5.97;2.92;;;;;;;;;;5052831;28;20029;-69
2023/05/04 03:42:37;;;;;;;5.72;2.97;;;;;;;;;;5052565;28;20029;-69
2023/05/04 03:45:04;;;;;;;4.90;2.97;;;;;;;;;;5052711;28;20035;-70
2023/05/04 03:47:31;;;;;;;4.80;3.08;;;;;;;;;;5052712;28;20013;-69
2023/05/04 03:49:57;;;;;;;5.80;3.40;;;;;;;;;;5052579;28;20029;-69
2023/05/04 03:52:23;;;;;;;5.70;3.08;;;;;;;;;;5052697;28;20070;-70
2023/05/04 03:54:50;;;;;;;4.95;2.70;;;;;;;;;;5052614;28;20041;-70
2023/05/04 03:57:16;;;;;;;4.70;3.13;;;;;;;;;;5052442;28;20469;-69
2023/05/04 03:59:42;;;;;;;5.00;2.97;;;;;;;;;;5052849;28;20481;-70
2023/05/04 04:02:08;;;;;;;5.25;2.90;;;;;;;;;;5052614;28;20035;-69
2023/05/04 04:04:35;;;;;;;3.92;2.80;;;;;;;;;;5052225;28;20028;-69
2023/05/04 04:07:01;;;;;;;3.33;2.90;;;;;;;;;;5052492;28;20033;-70
2023/05/04 04:09:27;;;;;;;3.28;2.97;;;;;;;;;;5052318;28;20033;-69
2023/05/04 04:11:54;;;;;;;5.45;3.13;;;;;;;;;;5052334;28;20070;-70
2023/05/04 04:14:20;;;;;;;5.78;3.38;;;;;;;;;;5052237;28;20419;-69
2023/05/04 04:16:46;;;;;;;4.28;2.95;;;;;;;;;;5051099;28;20025;-70
2023/05/04 04:19:13;;;;;;;5.88;3.30;;;;;;;;;;5051115;28;20531;-69
2023/05/04 04:21:39;;;;;;;4.97;3.00;;;;;;;;;;5052322;28;20025;-69
2023/05/04 04:24:05;;;;;;;9.43;3.10;;;;;;;;;;5052368;28;20025;-69
2023/05/04 04:26:32;;;;;;;3.65;2.80;;;;;;;;;;5052525;28;20021;-69
2023/05/04 04:28:59;;;;;;;4.85;2.95;;;;;;;;;;5052479;28;20025;-69
2023/05/04 04:31:25;;;;;;;4.97;3.08;;;;;;;;;;5052665;28;20047;-69
2023/05/04 04:33:51;;;;;;;5.53;3.38;;;;;;;;;;5056209;28;20029;-70
2023/05/04 04:36:18;;;;;;;3.38;2.75;;;;;;;;;;5056270;28;20031;-70
2023/05/04 04:38:45;;;;;;;4.60;3.00;;;;;;;;;;5056214;28;20017;-69
2023/05/04 04:41:11;;;;;;;7.30;3.47;;;;;;;;;;5056087;28;20029;-70
2023/05/04 04:43:37;;;;;;;4.78;2.72;;;;;;;;;;5056139;28;20424;-70
2023/05/04 04:46:04;;;;;;;4.90;3.10;;;;;;;;;;5055880;28;20471;-69
2023/05/04 04:48:30;;;;;;;5.18;2.88;;;;;;;;;;5056341;28;20021;-70
2023/05/04 04:50:57;;;;;;;3.50;3.20;;;;;;;;;;5055795;28;20462;-70
2023/05/04 04:53:24;;;;;;;5.57;3.33;;;;;;;;;;5055820;28;20024;-69
2023/05/04 04:55:51;;;;;;;4.63;3.10;;;;;;;;;;5055978;28;20033;-70
2023/05/04 04:58:17;;;;;;;3.58;3.10;;;;;;;;;;5055743;28;20033;-70
2023/05/04 05:00:44;;;;;;;3.28;2.85;;;;;;;;;;5055488;28;20029;-69
2023/05/04 05:03:10;;;;;;;4.70;2.80;;;;;;;;;;5055762;28;20397;-70
2023/05/04 05:05:36;;;;;;;3.13;2.78;;;;;;;;;;5055875;28;20021;-70
2023/05/04 05:08:03;;;;;;;3.38;2.60;;;;;;;;;;5055620;28;20020;-69
2023/05/04 05:10:29;;;;;;;6.22;2.83;;;;;;;;;;5055497;28;20028;-70
2023/05/04 05:12:56;;;;;;;3.83;3.00;;;;;;;;;;5056045;28;20028;-69
2023/05/04 05:15:22;;;;;;;3.50;2.72;;;;;;;;;;5055374;28;20037;-70
2023/05/04 05:17:48;;;;;;;4.90;2.90;;;;;;;;;;5055402;28;20019;-69
2023/05/04 05:20:14;;;;;;;7.43;2.83;;;;;;;;;;5054459;28;20044;-69
2023/05/04 05:22:41;;;;;;;4.38;3.05;;;;;;;;;;5055461;28;20017;-69
2023/05/04 05:25:08;;;;;;;4.65;2.78;;;;;;;;;;5055515;28;20021;-69
2023/05/04 05:27:35;;;;;;;4.88;2.65;;;;;;;;;;5055145;28;20017;-69
2023/05/04 05:30:02;;;;;;;7.53;3.13;;;;;;;;;;5055010;28;20045;-69
2023/05/04 05:32:28;;;;;;;4.40;2.80;;;;;;;;;;5055233;28;20025;-70
2023/05/04 05:34:55;;;;;;;9.32;2.97;;;;;;;;;;5055327;28;20029;-69
2023/05/04 05:37:21;;;;;;;3.95;2.78;;;;;;;;;;5055014;28;20469;-70
2023/05/04 05:39:48;;;;;;;3.55;2.95;;;;;;;;;;5055439;28;20040;-69
2023/05/04 05:42:14;;;;;;;3.75;2.90;;;;;;;;;;5054917;28;20017;-70
2023/05/04 05:44:41;;;;;;;5.60;3.13;;;;;;;;;;5054763;28;20050;-70
2023/05/04 05:47:07;;;;;;;4.45;2.88;;;;;;;;;;5054727;28;20029;-69
2023/05/04 05:49:33;;;;;;;5.03;2.88;;;;;;;;;;5054647;28;20440;-69
2023/05/04 05:52:00;;;;;;;3.65;2.50;;;;;;;;;;5055224;28;20025;-69
2023/05/04 05:54:27;;;;;;;4.93;2.53;;;;;;;;;;5054768;28;20027;-70
2023/05/04 05:56:53;;;;;;;2.63;2.40;;;;;;;;;;5055094;28;20048;-70
2023/05/04 05:59:19;;;;;;;6.00;2.88;;;;;;;;;;5054384;28;20029;-69
2023/05/04 06:01:46;;;;;;;2.58;2.38;;;;;;;;;;5054537;28;20028;-69
2023/05/04 06:04:12;;;;;;;5.50;2.78;;;;;;;;;;5054606;28;20470;-70
2023/05/04 06:06:38;;;;;;;12.48;2.90;;;;;;;;;;5054408;28;20030;-70
2023/05/04 06:09:04;;;;;;;14.00;3.30;;;;;;;;;;5054656;28;20027;-70
2023/05/04 06:11:31;;;;;;;8.38;2.70;;;;;;;;;;5054955;28;20021;-70
2023/05/04 06:13:57;;;;;;;5.55;2.60;;;;;;;;;;5054357;28;20029;-70
2023/05/04 06:16:24;;;;;;;3.65;2.45;;;;;;;;;;5054320;28;20497;-70
2023/05/04 06:18:50;;;;;;;5.07;2.28;;;;;;;;;;5054713;28;20031;-70
2023/05/04 06:21:17;;;;;;;4.10;2.22;;;;;;;;;;5054352;28;20033;-69
2023/05/04 06:23:44;;;;;;;9.15;2.65;;;;;;;;;;5054725;28;20029;-70
2023/05/04 06:26:11;;;;;;;4.50;2.40;;;;;;;;;;5054186;28;20025;-69
2023/05/04 06:28:37;;;;;;;7.55;2.38;;;;;;;;;;5054241;28;20039;-70
2023/05/04 06:31:03;;;;;;;2.22;2.00;;;;;;;;;;5052482;28;20044;-70
2023/05/04 06:33:30;;;;;;;6.07;2.17;;;;;;;;;;5054384;28;20037;-70
2023/05/04 06:35:56;;;;;;;8.68;2.00;;;;;;;;;;5053774;28;20048;-71
2023/05/04 06:38:22;;;;;;;5.60;2.00;;;;;;;;;;5054061;28;20504;-70
2023/05/04 06:40:49;;;;;;;7.82;2.38;;;;;;;;;;5054165;28;20037;-70
2023/05/04 06:43:15;;;;;;;7.32;2.35;;;;;;;;;;5053618;28;20059;-70
2023/05/04 06:45:42;;;;;;;6.22;2.55;;;;;;;;;;5054045;28;20033;-70
2023/05/04 06:48:08;;;;;;;13.82;2.85;;;;;;;;;;5053765;28;20474;-71
2023/05/04 06:50:35;;;;;;;15.57;3.00;;;;;;;;;;5051472;28;20025;-68
2023/05/04 06:53:08;;;;;;;10.50;3.10;;;;;;;;;;5050828;28;20021;-69
2023/05/04 06:55:35;;;;;;;9.25;2.40;;;;;;;;;;5052237;28;20036;-69
2023/05/04 06:58:02;;;;;;;9.23;1.92;;;;;;;;;;5052855;28;20484;-69
2023/05/04 07:00:29;;;;;;;8.35;2.38;;;;;;;;;;5053289;28;20087;-70
2023/05/04 07:02:55;;;;;;;7.03;1.80;;;;;;;;;;5052969;28;20062;-70
2023/05/04 07:05:22;;;;;;;3.28;1.80;;;;;;;;;;5052641;28;20023;-69
2023/05/04 07:07:49;;;;;;;3.35;2.10;;;;;;;;;;5053103;28;20482;-69
2023/05/04 07:10:16;;;;;;;5.57;2.08;;;;;;;;;;5053002;28;20025;-70
2023/05/04 07:12:42;;;;;;;4.15;2.10;;;;;;;;;;5052605;28;20027;-69
2023/05/04 07:15:09;;;;;;;3.30;1.67;;;;;;;;;;5052254;28;20033;-70
2023/05/04 07:17:36;;;;;;;4.03;1.60;;;;;;;;;;5052745;28;20474;-70
2023/05/04 07:20:03;;;;;;;5.90;1.77;;;;;;;;;;5051509;28;20035;-70
2023/05/04 07:22:30;;;;;;;3.75;1.10;;;;;;;;;;5052914;28;20091;-69
2023/05/04 07:25:00;;;;;;;5.85;2.15;;;;;;;;;;5052001;28;20039;-69
2023/05/04 07:27:26;;;;;;;20.50;3.60;;;;;;;;;;5052162;28;20027;-70
2023/05/04 07:29:52;;;;;;;5.10;1.70;;;;;;;;;;5052784;28;20048;-69
2023/05/04 07:32:19;;;;;;;1.73;1.10;;;;;;;;;;5052551;28;20033;-70
2023/05/04 07:34:46;;;;;;;5.18;1.20;;;;;;;;;;5052472;28;20029;-69
2023/05/04 07:37:12;;;;;;;6.05;1.75;;;;;;;;;;5051956;28;20031;-70
2023/05/04 07:39:38;;;;;;;11.82;1.20;;;;;;;;;;5052491;28;20028;-70
2023/05/04 07:42:05;;;;;;;2.40;1.05;;;;;;;;;;5052419;28;20054;-70
2023/05/04 07:44:32;;;;;;;4.43;0.95;;;;;;;;;;5052740;28;20025;-70
2023/05/04 07:46:58;;;;;;;8.82;1.50;;;;;;;;;;5051743;28;20029;-70
2023/05/04 07:49:25;;;;;;;3.47;0.90;;;;;;;;;;5052364;28;20039;-70
2023/05/04 07:51:52;;;;;;;8.25;1.05;;;;;;;;;;5052364;28;20024;-67
2023/05/04 07:54:18;;;;;;;2.78;0.80;;;;;;;;;;5051888;28;20047;-68
2023/05/04 07:56:45;;;;;;;1.35;0.70;;;;;;;;;;5052254;28;20025;-70
2023/05/04 07:59:11;;;;;;;2.33;1.02;;;;;;;;;;5051863;28;20063;-71
2023/05/04 08:01:37;;;;;;;3.05;0.90;;;;;;;;;;5051976;28;20017;-70
2023/05/04 08:04:04;;;;;;;1.38;0.80;;;;;;;;;;5051945;28;20025;-69
2023/05/04 08:06:30;;;;;;;1.95;0.75;;;;;;;;;;5052096;28;20466;-69
2023/05/04 08:08:56;;;;;;;1.85;0.80;;;;;;;;;;5050208;28;20029;-70
2023/05/04 08:11:23;;;;;;;1.80;0.90;;;;;;;;;;5051817;28;20031;-71
2023/05/04 08:13:49;;;;;;;2.53;0.90;;;;;;;;;;5051986;28;20039;-70
2023/05/04 08:16:16;;;;;;;1.30;0.63;;;;;;;;;;5051811;28;20494;-70
2023/05/04 08:18:42;;;;;;;3.92;0.90;;;;;;;;;;5051702;28;20021;-70
2023/05/04 08:21:09;;;;;;;1.85;0.90;;;;;;;;;;5051817;28;20025;-70
2023/05/04 08:23:35;;;;;;;1.65;0.80;;;;;;;;;;5051424;28;20051;-69
2023/05/04 08:26:02;;;;;;;0.85;0.82;;;;;;;;;;5051780;28;20025;-71
2023/05/04 08:28:29;;;;;;;0.70;0.70;;;;;;;;;;5051999;28;20029;-69
2023/05/04 08:30:56;;;;;;;3.20;0.80;;;;;;;;;;5051775;28;20043;-70
2023/05/04 08:33:22;;;;;;;2.08;0.65;;;;;;;;;;5051702;28;20401;-71
2023/05/04 08:35:50;;;;;;;1.58;0.70;;;;;;;;;;5052064;28;20037;-70
2023/05/04 08:38:16;;;;;;;1.48;0.70;;;;;;;;;;5051936;28;20021;-70
2023/05/04 08:40:42;;;;;;;2.75;0.80;;;;;;;;;;5051471;28;20023;-70
2023/05/04 08:43:09;;;;;;;1.48;0.70;;;;;;;;;;5051831;28;20025;-68
2023/05/04 08:45:39;;;;;;;2.72;0.70;;;;;;;;;;5051509;28;20033;-70
2023/05/04 08:48:09;;;;;;;2.03;1.00;;;;;;;;;;5051555;28;20025;-70
2023/05/04 08:50:37;;;;;;;1.50;0.80;;;;;;;;;;5051647;28;20033;-68
2023/05/04 08:53:05;;;;;;;0.88;0.70;;;;;;;;;;5051527;28;20021;-67
2023/05/04 08:55:32;;;;;;;3.92;0.80;;;;;;;;;;5051584;28;20039;-68
2023/05/04 08:58:00;;;;;;;2.92;0.60;;;;;;;;;;5051408;28;20017;-70
2023/05/04 09:00:27;;;;;;;1.27;0.70;;;;;;;;;;5051537;28;20028;-68
2023/05/04 09:02:54;;;;;;;2.83;0.93;;;;;;;;;;5051146;28;20486;-68
2023/05/04 09:05:21;;;;;;;1.50;0.88;;;;;;;;;;5051536;28;20025;-68
2023/05/04 09:07:49;;;;;;;2.83;0.65;;;;;;;;;;5051244;28;20047;-67
2023/05/04 09:10:16;;;;;;;1.10;0.80;;;;;;;;;;5051412;28;20035;-70
2023/05/04 09:12:43;;;;;;;1.08;0.65;;;;;;;;;;5051397;28;20027;-68
2023/05/04 09:15:16;;;;;;;1.75;0.70;;;;;;;;;;5051558;28;20051;-68
2023/05/04 09:17:43;;;;;;;1.13;0.70;;;;;;;;;;5052759;28;20032;-68
2023/05/04 09:20:09;;;;;;;1.05;0.70;;;;;;;;;;5055058;28;20029;-67
2023/05/04 09:22:36;;;;;;;2.63;0.93;;;;;;;;;;5054816;28;20031;-68
2023/05/04 09:25:09;;;;;;;2.33;0.75;;;;;;;;;;5054925;28;20412;-68
2023/05/04 09:27:36;;;;;;;2.47;0.80;;;;;;;;;;5054726;28;20766;-70
2023/05/04 09:30:03;;;;;;;2.25;0.70;;;;;;;;;;5054838;28;20037;-67
2023/05/04 09:32:30;;;;;;;1.55;0.80;;;;;;;;;;5087251;28;20094;-67
2023/05/04 09:34:56;;;;;;;3.38;1.08;;;;;;;;;;5054543;28;20452;-67
2023/05/04 09:37:24;;;;;;;3.88;0.90;;;;;;;;;;5054219;28;20494;-70
2023/05/04 09:39:54;;;;;;;5.50;1.05;;;;;;;;;;5054677;28;20478;-70
2023/05/04 09:42:22;;;;;;;2.03;0.80;;;;;;;;;;5054687;28;20033;-70
2023/05/04 09:45:00;;;;;;;3.22;0.80;;;;;;;;;;5054637;28;20082;-70
2023/05/04 09:47:46;;;;;;;2.83;0.70;;;;;;;;;;5054326;28;20035;-70
2023/05/04 09:50:16;;;;;;;1.67;0.93;;;;;;;;;;5054700;28;20473;-70
2023/05/04 09:52:43;;;;;;;3.25;0.80;;;;;;;;;;5054429;28;20036;-70
2023/05/04 09:55:11;;;;;;;2.15;1.00;;;;;;;;;;5054502;28;20440;-69
2023/05/04 09:57:38;;;;;;;1.65;0.70;;;;;;;;;;5054041;28;20020;-70
2023/05/04 10:00:04;;;;;;;2.58;0.70;;;;;;;;;;5053264;28;20028;-69
2023/05/04 10:02:31;;;;;;;1.60;0.90;;;;;;;;;;5054258;28;20482;-70
2023/05/04 10:04:59;;;;;;;1.92;0.90;;;;;;;;;;5052650;28;20029;-71
2023/05/04 10:07:29;;;;;;;3.33;0.90;;;;;;;;;;5054134;28;20035;-68
2023/05/04 10:09:57;;;;;;;1.17;0.90;;;;;;;;;;5054288;28;20035;-68
2023/05/04 10:12:23;;;;;;;0.82;0.80;;;;;;;;;;5054250;28;20021;-71
2023/05/04 10:14:49;;;;;;;1.58;0.80;;;;;;;;;;5053916;28;20508;-70
2023/05/04 10:17:35;;;;;;;3.30;0.70;;;;;;;;;;5053924;28;20013;-71
2023/05/04 10:20:04;;;;;;;2.40;0.88;;;;;;;;;;5053748;28;20033;-71
2023/05/04 10:22:30;;;;;;;3.28;0.90;;;;;;;;;;5053756;28;20490;-70
2023/05/04 10:25:09;;;;;;;5.50;0.90;;;;;;;;;;5054080;28;20040;-70
2023/05/04 10:27:38;;;;;;;2.40;0.90;;;;;;;;;;5053647;28;20035;-68
2023/05/04 10:30:06;;;;;;;2.00;0.90;;;;;;;;;;5052555;28;20525;-68
2023/05/04 10:32:38;;;;;;;9.05;1.15;;;;;;;;;;5053671;28;20051;-69
2023/05/04 10:35:05;;;;;;;2.15;0.85;;;;;;;;;;5053499;28;20059;-68
2023/05/04 10:37:32;;;;;;;4.38;1.05;;;;;;;;;;5054018;28;20025;-68
2023/05/04 10:39:58;;;;;;;2.60;0.75;;;;;;;;;;5053885;28;20039;-70
2023/05/04 10:42:24;;;;;;;2.95;1.00;;;;;;;;;;5053850;28;20017;-70
2023/05/04 10:44:55;;;;;;;1.52;0.98;;;;;;;;;;5053612;28;20025;-70
2023/05/04 10:47:21;;;;;;;;;;;;;;;;;;5054188;28;20017;-71
2023/05/04 10:49:47;;;;;;;1.35;0.93;;;;;;;;;;5053668;28;19905;-70
2023/05/04 10:52:17;;;;;;;1.58;0.90;;;;;;;;;;5053530;28;20025;-70
2023/05/04 10:54:44;;;;;;;2.55;0.70;;;;;;;;;;5053303;28;20428;-70
2023/05/04 10:57:16;;;;;;;1.50;0.77;;;;;;;;;;5053516;28;20031;-70
2023/05/04 10:59:43;;;;;;;0.95;0.82;;;;;;;;;;5053278;28;20029;-70
2023/05/04 11:02:10;;;;;;;1.88;0.75;;;;;;;;;;5053272;28;20021;-70
2023/05/04 11:04:37;;;;;;;1.20;0.70;;;;;;;;;;5053009;28;20020;-70
2023/05/04 11:07:04;;;;;;;1.90;1.10;;;;;;;;;;5053286;28;20556;-70
2023/05/04 11:09:39;;;;;;;3.25;1.02;;;;;;;;;;5052973;28;20086;-70
2023/05/04 11:12:06;;;;;;;3.70;0.90;;;;;;;;;;5053072;28;20400;-70
2023/05/04 11:14:39;;;;;;;1.83;0.85;;;;;;;;;;5053446;28;20027;-70
2023/05/04 11:17:07;;;;;;;2.63;1.08;;;;;;;;;;5053119;28;20421;-70
2023/05/04 11:19:33;;;;;;;2.65;0.90;;;;;;;;;;5053093;28;20017;-70
2023/05/04 11:22:03;;;;;;;1.58;0.70;;;;;;;;;;5053030;28;20041;-70
2023/05/04 11:24:43;;;;;;;2.50;0.90;;;;;;;;;;5052977;28;20047;-71
2023/05/04 11:27:21;;;;;;;4.07;0.88;;;;;;;;;;5053317;28;20021;-70
2023/05/04 11:29:54;;;;;;;1.77;0.90;;;;;;;;;;5053004;28;20049;-69
2023/05/04 11:32:22;;;;;;;2.65;0.88;;;;;;;;;;5052472;28;20040;-71
2023/05/04 11:34:49;;;;;;;1.55;0.82;;;;;;;;;;5051537;28;20037;-70
2023/05/04 11:37:15;;;;;;;1.08;0.80;;;;;;;;;;5053018;28;20097;-70
2023/05/04 11:39:41;;;;;;;2.08;1.10;;;;;;;;;;5052490;28;20021;-70
2023/05/04 11:42:08;;;;;;;2.88;0.80;;;;;;;;;;5052408;28;20050;-71
2023/05/04 11:44:35;;;;;;;1.73;0.80;;;;;;;;;;5052665;28;20417;-71
2023/05/04 11:47:01;;;;;;;1.33;0.82;;;;;;;;;;5052289;28;20055;-70
2023/05/04 11:49:29;;;;;;;3.38;1.00;;;;;;;;;;5052454;28;20389;-71
2023/05/04 11:52:08;;;;;;;0.98;0.90;;;;;;;;;;5052603;28;20028;-71
2023/05/04 11:54:37;;;;;;;1.95;1.00;;;;;;;;;;5052581;28;20067;-70
2023/05/04 11:57:04;;;;;;;3.03;0.90;;;;;;;;;;5052685;28;20016;-71
2023/05/04 11:59:30;;;;;;;1.83;1.70;;;;;;;;;;5049803;28;20027;-71
2023/05/04 12:01:57;;;;;;;2.33;0.90;;;;;;;;;;5052021;28;20033;-70
2023/05/04 12:04:23;;;;;;;3.55;0.90;;;;;;;;;;5052164;28;20029;-70
2023/05/04 12:06:50;;;;;;;2.63;1.17;;;;;;;;;;5051820;28;20025;-70
2023/05/04 12:09:16;;;;;;;3.70;1.25;;;;;;;;;;5051618;28;20021;-70
2023/05/04 12:11:53;;;;;;;4.63;0.98;;;;;;;;;;5051957;28;20025;-70
2023/05/04 12:14:19;;;;;;;2.53;1.20;;;;;;;;;;5052064;28;20029;-72
2023/05/04 12:16:56;;;;;;;3.20;1.30;;;;;;;;;;5051276;28;20062;-72
2023/05/04 12:19:22;;;;;;;2.47;1.10;;;;;;;;;;5050801;28;20112;-71
2023/05/04 12:21:52;;;;;;;2.05;0.90;;;;;;;;;;5052191;28;20029;-72
2023/05/04 12:24:23;;;;;;;5.30;1.00;;;;;;;;;;5051933;28;20021;-71
2023/05/04 12:26:49;;;;;;;2.55;1.02;;;;;;;;;;5051704;28;20424;-71
2023/05/04 12:29:16;;;;;;;3.28;1.17;;;;;;;;;;5051492;28;20031;-72
2023/05/04 12:31:42;;;;;;;2.55;0.90;;;;;;;;;;5051728;28;20040;-71
2023/05/04 12:34:08;;;;;;;3.42;1.30;;;;;;;;;;5051545;28;20020;-72
2023/05/04 12:36:35;;;;;;;3.80;1.10;;;;;;;;;;5051665;28;20409;-72
2023/05/04 12:39:01;;;;;;;1.88;1.15;;;;;;;;;;5051615;28;20029;-71
2023/05/04 12:41:27;;;;;;;2.55;1.05;;;;;;;;;;5052034;28;20044;-71
2023/05/04 12:43:54;;;;;;;2.85;1.10;;;;;;;;;;5051697;28;20025;-72
2023/05/04 12:46:21;;;;;;;6.10;1.00;;;;;;;;;;5050869;28;20463;-72
2023/05/04 12:48:47;;;;;;;2.40;1.13;;;;;;;;;;5051451;28;20435;-71
2023/05/04 12:51:14;;;;;;;3.10;1.10;;;;;;;;;;5051695;28;20048;-71
2023/05/04 12:53:41;;;;;;;1.65;0.90;;;;;;;;;;5054783;28;20020;-71
2023/05/04 12:56:07;;;;;;;2.10;1.20;;;;;;;;;;5055437;28;20078;-71
2023/05/04 12:58:34;;;;;;;1.85;1.17;;;;;;;;;;5054849;28;20024;-71
2023/05/04 13:01:00;;;;;;;3.83;0.90;;;;;;;;;;5055022;28;20025;-71
2023/05/04 13:03:26;;;;;;;4.57;1.17;;;;;;;;;;5055362;28;20021;-71
2023/05/04 13:05:53;;;;;;;2.53;1.23;;;;;;;;;;5055329;28;20025;-71
2023/05/04 13:08:19;;;;;;;2.85;1.27;;;;;;;;;;5055193;28;20025;-71
2023/05/04 13:10:46;;;;;;;3.35;1.30;;;;;;;;;;5054844;28;20027;-71
2023/05/04 13:13:14;;;;;;;2.60;1.20;;;;;;;;;;5055153;28;20033;-71
2023/05/04 13:15:42;;;;;;;2.25;1.10;;;;;;;;;;5055148;28;20029;-71
2023/05/04 13:18:09;;;;;;;1.35;0.95;;;;;;;;;;5055086;28;20013;-71
2023/05/04 13:20:35;;;;;;;2.10;1.10;;;;;;;;;;5055209;28;20035;-71
2023/05/04 13:23:01;;;;;;;2.42;1.10;;;;;;;;;;5054980;28;20025;-71
2023/05/04 13:25:28;;;;;;;2.72;1.20;;;;;;;;;;5055095;28;20028;-70
2023/05/04 13:27:55;;;;;;;1.58;1.05;;;;;;;;;;5054658;28;20021;-71
2023/05/04 13:30:21;;;;;;;2.20;0.90;;;;;;;;;;5054786;28;20045;-70
2023/05/04 13:32:48;;;;;;;2.65;1.10;;;;;;;;;;5054720;28;20047;-71
2023/05/04 13:35:14;;;;;;;2.85;1.20;;;;;;;;;;5054543;28;20037;-71
2023/05/04 13:37:41;;;;;;;1.40;0.88;;;;;;;;;;5054781;28;20462;-71
2023/05/04 13:40:07;;;;;;;2.35;1.10;;;;;;;;;;5053350;28;20035;-71
2023/05/04 13:42:34;;;;;;;1.92;1.08;;;;;;;;;;5054480;28;20493;-71
2023/05/04 13:45:00;;;;;;;2.90;1.10;;;;;;;;;;5054392;28;20408;-71
2023/05/04 13:47:26;;;;;;;6.13;1.08;;;;;;;;;;5054491;28;20025;-71
2023/05/04 13:49:53;;;;;;;3.67;1.30;;;;;;;;;;5054602;28;20127;-70
2023/05/04 13:52:19;;;;;;;2.38;1.20;;;;;;;;;;5053150;28;20085;-71
2023/05/04 13:54:45;;;;;;;5.07;1.10;;;;;;;;;;5054438;28;20029;-71
2023/05/04 13:57:12;;;;;;;3.95;1.15;;;;;;;;;;5054226;28;20024;-70
2023/05/04 13:59:38;;;;;;;3.17;1.27;;;;;;;;;;5053188;28;20490;-71
2023/05/04 14:02:04;;;;;;;2.08;0.90;;;;;;;;;;5052700;28;20025;-71
2023/05/04 14:04:31;;;;;;;3.88;1.30;;;;;;;;;;5054049;28;20042;-71
2023/05/04 14:06:57;;;;;;;3.40;1.10;;;;;;;;;;5054337;28;20029;-70
2023/05/04 14:09:25;;;;;;;6.22;1.27;;;;;;;;;;5054621;28;20017;-70
2023/05/04 14:11:52;;;;;;;2.70;0.95;;;;;;;;;;5052631;28;20025;-70
2023/05/04 14:14:18;;;;;;;5.18;1.20;;;;;;;;;;5053974;28;20017;-70
2023/05/04 14:16:44;;;;;;;3.03;1.35;;;;;;;;;;5053973;28;20041;-71
2023/05/04 14:19:11;;;;;;;8.18;1.30;;;;;;;;;;5053978;28;20017;-70
2023/05/04 14:21:37;;;;;;;2.45;1.27;;;;;;;;;;5053851;28;20039;-71
2023/05/04 14:24:03;;;;;;;6.18;1.30;;;;;;;;;;5053940;28;20245;-71
2023/05/04 14:26:31;;;;;;;1.55;0.88;;;;;;;;;;5053485;28;20367;-71
2023/05/04 14:28:58;;;;;;;3.08;1.10;;;;;;;;;;5053766;28;20025;-70
2023/05/04 14:31:24;;;;;;;4.88;1.13;;;;;;;;;;5053496;28;20524;-70
2023/05/04 14:33:50;;;;;;;2.50;1.10;;;;;;;;;;5053507;28;20033;-70
2023/05/04 14:36:17;;;;;;;6.55;1.55;;;;;;;;;;5053480;28;20041;-71
2023/05/04 14:38:43;;;;;;;1.92;0.90;;;;;;;;;;5053648;28;20478;-70
2023/05/04 14:41:09;;;;;;;5.03;1.00;;;;;;;;;;5053519;28;20217;-70